首页
METAR-TAF:

METAR-TAF

机场 :

空军基地

Niederstetten, 德国

纬度: 49-24N, 经度: 009-58E, 海拔: 468米

当前天气观测

该预报发布于55分钟前的21:20 UTC
风速9节,风向南转南东
温度 21°C
湿度 73%
气压 1018 hPa
能见度10公里或以上
少量云层高于6000英尺, 积雨云.
散云层高于12000英尺
多云层高于33000英尺
附近有雷暴

METAR: ETHN 112120Z 16009KT 9999 VCTS FEW060CB SCT120 BKN330 21/16 Q1018 BLU+

时间: 00:15 (22:15 UTC)

预报

该预报发布于9小时和15分钟前的13:00 UTC
预报有效从11日的 14点(UTC)到 11日的 23点(UTC)
风速7节,风向
能见度10公里或以上
少量云层高于5000英尺
短暂存在
从 11日的 14点(UTC)到 11日的 20点(UTC)
风速15节,风向多变,有时为30节阵风
能見度: 1500
多云层高于3000英尺, 积雨云.
雷暴, 雨

TAF: ETHN 111300Z 1114/1123 09007KT 9999 NSW FEW050 TEMPO 1114/1120 VRB15G30KT 1500 TSRA BKN030CB

超过4000个机场的气象观测和天气预报(METAR&TAF报告)。

可查询的气象台以黄色和红色小点在地图上表示。

将鼠标移到小点上方,可查看气象台名称。

然后点击查看天气观测和预报。

如需切换地图:点击带黑十字的绿色按钮放大地图;点击带横线的绿色按钮缩小地图;或者点击绿色箭头查看邻近地区的地图。


METAR-TAF: